Terminal Aerodrome Forecast
Issued by NWS

Home | Current Version | Previous Version | Graphics & Text | Print | Product List | Glossary On
Versions: 1 2 3 4 5 6 7 8 9 10 11 12 13 14 15 16 17 18
422
FTUS43 KMPX 241737
TAFAXN
TAF
KAXN 241737Z 2418/2518 02012KT P6SM OVC006
     FM241845 02010KT P6SM BKN015
     FM250000 05007KT P6SM BKN020
     FM251200 09010KT P6SM FEW020=

USA.gov is the U.S. government's official web portal to all federal, state and local government web resources and services.